sensor_id;sensor_type;location;lat;lon;timestamp;P1;durP1;ratioP1;P2;durP2;ratioP2
69253;SDS011;56364;41.816;12.448;2022-10-17T00:01:42;7.43;;;3.28;;
69253;SDS011;56364;41.816;12.448;2022-10-17T00:06:34;7.10;;;2.97;;
69253;SDS011;56364;41.816;12.448;2022-10-17T00:11:26;7.68;;;3.10;;
69253;SDS011;56364;41.816;12.448;2022-10-17T00:13:53;14.65;;;3.28;;
69253;SDS011;56364;41.816;12.448;2022-10-17T00:16:23;13.25;;;3.38;;
69253;SDS011;56364;41.816;12.448;2022-10-17T00:18:49;8.40;;;3.40;;
69253;SDS011;56364;41.816;12.448;2022-10-17T00:21:16;10.48;;;3.17;;
69253;SDS011;56364;41.816;12.448;2022-10-17T00:23:43;10.30;;;3.10;;
69253;SDS011;56364;41.816;12.448;2022-10-17T00:26:09;7.75;;;3.35;;
69253;SDS011;56364;41.816;12.448;2022-10-17T00:28:38;11.55;;;3.50;;
69253;SDS011;56364;41.816;12.448;2022-10-17T00:31:05;6.82;;;3.33;;
69253;SDS011;56364;41.816;12.448;2022-10-17T00:33:34;13.90;;;3.60;;
69253;SDS011;56364;41.816;12.448;2022-10-17T00:36:01;10.75;;;3.00;;
69253;SDS011;56364;41.816;12.448;2022-10-17T00:38:28;8.50;;;3.53;;
69253;SDS011;56364;41.816;12.448;2022-10-17T00:40:54;14.35;;;3.80;;
69253;SDS011;56364;41.816;12.448;2022-10-17T00:43:20;8.10;;;3.45;;
69253;SDS011;56364;41.816;12.448;2022-10-17T00:45:46;11.48;;;3.92;;
69253;SDS011;56364;41.816;12.448;2022-10-17T00:48:15;10.48;;;3.72;;
69253;SDS011;56364;41.816;12.448;2022-10-17T00:53:07;7.75;;;3.17;;
69253;SDS011;56364;41.816;12.448;2022-10-17T00:55:35;9.15;;;4.00;;
69253;SDS011;56364;41.816;12.448;2022-10-17T00:58:03;8.00;;;2.88;;
69253;SDS011;56364;41.816;12.448;2022-10-17T01:00:30;9.50;;;3.80;;
69253;SDS011;56364;41.816;12.448;2022-10-17T01:02:56;11.45;;;3.65;;
69253;SDS011;56364;41.816;12.448;2022-10-17T01:07:49;8.80;;;3.55;;
69253;SDS011;56364;41.816;12.448;2022-10-17T01:10:16;8.82;;;3.35;;
69253;SDS011;56364;41.816;12.448;2022-10-17T01:20:28;13.20;;;4.07;;
69253;SDS011;56364;41.816;12.448;2022-10-17T01:23:05;9.50;;;3.50;;
69253;SDS011;56364;41.816;12.448;2022-10-17T01:25:48;14.07;;;3.92;;
69253;SDS011;56364;41.816;12.448;2022-10-17T01:28:19;7.78;;;3.47;;
69253;SDS011;56364;41.816;12.448;2022-10-17T01:30:55;8.57;;;3.70;;
69253;SDS011;56364;41.816;12.448;2022-10-17T01:38:49;8.05;;;3.47;;
69253;SDS011;56364;41.816;12.448;2022-10-17T01:41:26;9.57;;;3.88;;
69253;SDS011;56364;41.816;12.448;2022-10-17T01:43:54;10.63;;;4.13;;
69253;SDS011;56364;41.816;12.448;2022-10-17T01:46:29;8.52;;;3.83;;
69253;SDS011;56364;41.816;12.448;2022-10-17T01:48:58;7.88;;;3.58;;
69253;SDS011;56364;41.816;12.448;2022-10-17T01:51:27;10.15;;;4.40;;
69253;SDS011;56364;41.816;12.448;2022-10-17T01:54:00;9.75;;;4.50;;
69253;SDS011;56364;41.816;12.448;2022-10-17T01:56:27;8.48;;;4.32;;
69253;SDS011;56364;41.816;12.448;2022-10-17T01:58:56;13.57;;;4.70;;
69253;SDS011;56364;41.816;12.448;2022-10-17T02:01:25;9.13;;;3.72;;
69253;SDS011;56364;41.816;12.448;2022-10-17T02:03:52;20.10;;;4.68;;
69253;SDS011;56364;41.816;12.448;2022-10-17T02:06:19;10.57;;;4.05;;
69253;SDS011;56364;41.816;12.448;2022-10-17T02:16:34;10.20;;;4.22;;
69253;SDS011;56364;41.816;12.448;2022-10-17T02:31:39;9.10;;;4.20;;
69253;SDS011;56364;41.816;12.448;2022-10-17T02:34:08;9.35;;;4.40;;
69253;SDS011;56364;41.816;12.448;2022-10-17T02:36:38;10.95;;;4.63;;
69253;SDS011;56364;41.816;12.448;2022-10-17T02:39:05;13.02;;;4.57;;
69253;SDS011;56364;41.816;12.448;2022-10-17T02:41:33;9.02;;;4.15;;
69253;SDS011;56364;41.816;12.448;2022-10-17T02:44:01;11.20;;;4.18;;
69253;SDS011;56364;41.816;12.448;2022-10-17T02:46:27;9.18;;;4.22;;
69253;SDS011;56364;41.816;12.448;2022-10-17T02:48:54;9.18;;;3.90;;
69253;SDS011;56364;41.816;12.448;2022-10-17T02:56:16;15.13;;;4.10;;
69253;SDS011;56364;41.816;12.448;2022-10-17T02:58:45;8.90;;;4.18;;
69253;SDS011;56364;41.816;12.448;2022-10-17T03:01:11;7.75;;;3.80;;
69253;SDS011;56364;41.816;12.448;2022-10-17T03:03:38;9.05;;;4.03;;
69253;SDS011;56364;41.816;12.448;2022-10-17T03:06:06;10.90;;;3.83;;
69253;SDS011;56364;41.816;12.448;2022-10-17T03:10:58;9.55;;;3.22;;
69253;SDS011;56364;41.816;12.448;2022-10-17T03:13:24;7.07;;;3.70;;
69253;SDS011;56364;41.816;12.448;2022-10-17T03:15:50;13.85;;;3.65;;
69253;SDS011;56364;41.816;12.448;2022-10-17T03:18:16;8.65;;;3.65;;
69253;SDS011;56364;41.816;12.448;2022-10-17T03:23:08;12.10;;;3.47;;
69253;SDS011;56364;41.816;12.448;2022-10-17T03:25:34;8.40;;;3.70;;
69253;SDS011;56364;41.816;12.448;2022-10-17T03:28:00;12.20;;;4.85;;
69253;SDS011;56364;41.816;12.448;2022-10-17T03:30:27;10.15;;;3.53;;
69253;SDS011;56364;41.816;12.448;2022-10-17T03:32:54;11.25;;;3.95;;
69253;SDS011;56364;41.816;12.448;2022-10-17T03:35:20;8.95;;;3.67;;
69253;SDS011;56364;41.816;12.448;2022-10-17T03:37:46;12.63;;;3.72;;
69253;SDS011;56364;41.816;12.448;2022-10-17T03:40:12;9.70;;;3.92;;
69253;SDS011;56364;41.816;12.448;2022-10-17T03:45:04;10.00;;;3.90;;
69253;SDS011;56364;41.816;12.448;2022-10-17T03:49:56;8.30;;;3.03;;
69253;SDS011;56364;41.816;12.448;2022-10-17T03:52:22;9.50;;;3.83;;
69253;SDS011;56364;41.816;12.448;2022-10-17T03:57:15;8.38;;;3.67;;
69253;SDS011;56364;41.816;12.448;2022-10-17T04:02:07;7.20;;;3.00;;
69253;SDS011;56364;41.816;12.448;2022-10-17T04:04:33;11.02;;;3.60;;
69253;SDS011;56364;41.816;12.448;2022-10-17T04:06:59;11.57;;;3.92;;
69253;SDS011;56364;41.816;12.448;2022-10-17T04:09:25;9.02;;;3.58;;
69253;SDS011;56364;41.816;12.448;2022-10-17T04:11:51;10.13;;;3.85;;
69253;SDS011;56364;41.816;12.448;2022-10-17T04:14:17;10.68;;;3.97;;
69253;SDS011;56364;41.816;12.448;2022-10-17T04:19:10;8.02;;;3.40;;
69253;SDS011;56364;41.816;12.448;2022-10-17T04:21:37;7.85;;;3.65;;
69253;SDS011;56364;41.816;12.448;2022-10-17T04:24:03;8.82;;;3.33;;
69253;SDS011;56364;41.816;12.448;2022-10-17T04:26:29;7.97;;;3.47;;
69253;SDS011;56364;41.816;12.448;2022-10-17T04:28:55;9.57;;;3.40;;
69253;SDS011;56364;41.816;12.448;2022-10-17T04:33:47;9.93;;;3.58;;
69253;SDS011;56364;41.816;12.448;2022-10-17T04:36:15;8.18;;;3.70;;
69253;SDS011;56364;41.816;12.448;2022-10-17T04:38:42;10.20;;;4.15;;
69253;SDS011;56364;41.816;12.448;2022-10-17T04:41:12;7.75;;;3.42;;
69253;SDS011;56364;41.816;12.448;2022-10-17T04:43:38;6.80;;;3.10;;
69253;SDS011;56364;41.816;12.448;2022-10-17T04:46:08;14.57;;;4.30;;
69253;SDS011;56364;41.816;12.448;2022-10-17T04:48:35;11.60;;;3.70;;
69253;SDS011;56364;41.816;12.448;2022-10-17T04:51:05;10.50;;;3.67;;
69253;SDS011;56364;41.816;12.448;2022-10-17T04:53:35;11.50;;;3.72;;
69253;SDS011;56364;41.816;12.448;2022-10-17T04:56:06;10.55;;;3.67;;
69253;SDS011;56364;41.816;12.448;2022-10-17T04:58:33;11.50;;;4.30;;
69253;SDS011;56364;41.816;12.448;2022-10-17T05:03:25;12.10;;;3.58;;
69253;SDS011;56364;41.816;12.448;2022-10-17T05:05:51;8.82;;;3.60;;
69253;SDS011;56364;41.816;12.448;2022-10-17T05:08:17;11.00;;;4.32;;
69253;SDS011;56364;41.816;12.448;2022-10-17T05:10:44;11.27;;;3.97;;
69253;SDS011;56364;41.816;12.448;2022-10-17T05:13:10;11.60;;;3.53;;
69253;SDS011;56364;41.816;12.448;2022-10-17T05:15:36;7.57;;;3.45;;
69253;SDS011;56364;41.816;12.448;2022-10-17T05:20:29;8.98;;;3.20;;
69253;SDS011;56364;41.816;12.448;2022-10-17T05:22:57;12.13;;;4.10;;
69253;SDS011;56364;41.816;12.448;2022-10-17T05:25:23;9.95;;;3.67;;
69253;SDS011;56364;41.816;12.448;2022-10-17T05:27:49;9.75;;;4.32;;
69253;SDS011;56364;41.816;12.448;2022-10-17T05:35:24;16.45;;;5.25;;
69253;SDS011;56364;41.816;12.448;2022-10-17T05:37:50;9.07;;;3.97;;
69253;SDS011;56364;41.816;12.448;2022-10-17T05:40:16;11.32;;;4.85;;
69253;SDS011;56364;41.816;12.448;2022-10-17T05:42:46;13.70;;;5.20;;
69253;SDS011;56364;41.816;12.448;2022-10-17T05:45:12;10.05;;;4.22;;
69253;SDS011;56364;41.816;12.448;2022-10-17T05:47:39;9.45;;;4.43;;
69253;SDS011;56364;41.816;12.448;2022-10-17T05:50:05;9.32;;;4.03;;
69253;SDS011;56364;41.816;12.448;2022-10-17T05:52:31;12.20;;;4.38;;
69253;SDS011;56364;41.816;12.448;2022-10-17T05:54:58;10.07;;;4.20;;
69253;SDS011;56364;41.816;12.448;2022-10-17T05:57:24;10.73;;;4.00;;
69253;SDS011;56364;41.816;12.448;2022-10-17T05:59:50;11.10;;;4.10;;
69253;SDS011;56364;41.816;12.448;2022-10-17T06:02:16;12.20;;;4.22;;
69253;SDS011;56364;41.816;12.448;2022-10-17T06:04:42;9.43;;;4.05;;
69253;SDS011;56364;41.816;12.448;2022-10-17T06:07:16;9.88;;;4.50;;
69253;SDS011;56364;41.816;12.448;2022-10-17T06:09:45;10.75;;;4.20;;
69253;SDS011;56364;41.816;12.448;2022-10-17T06:12:11;10.13;;;4.30;;
69253;SDS011;56364;41.816;12.448;2022-10-17T06:17:03;18.52;;;5.03;;
69253;SDS011;56364;41.816;12.448;2022-10-17T06:19:29;11.13;;;4.28;;
69253;SDS011;56364;41.816;12.448;2022-10-17T06:21:55;12.90;;;4.20;;
69253;SDS011;56364;41.816;12.448;2022-10-17T06:24:21;8.98;;;3.80;;
69253;SDS011;56364;41.816;12.448;2022-10-17T06:26:47;8.45;;;4.18;;
69253;SDS011;56364;41.816;12.448;2022-10-17T06:29:15;15.43;;;4.25;;
69253;SDS011;56364;41.816;12.448;2022-10-17T06:31:41;12.05;;;4.20;;
69253;SDS011;56364;41.816;12.448;2022-10-17T06:34:08;12.75;;;4.55;;
69253;SDS011;56364;41.816;12.448;2022-10-17T06:36:34;16.95;;;4.68;;
69253;SDS011;56364;41.816;12.448;2022-10-17T06:39:00;7.80;;;3.88;;
69253;SDS011;56364;41.816;12.448;2022-10-17T06:41:26;15.38;;;4.18;;
69253;SDS011;56364;41.816;12.448;2022-10-17T06:43:52;15.90;;;3.92;;
69253;SDS011;56364;41.816;12.448;2022-10-17T06:46:18;10.77;;;4.40;;
69253;SDS011;56364;41.816;12.448;2022-10-17T06:48:45;9.35;;;3.95;;
69253;SDS011;56364;41.816;12.448;2022-10-17T06:51:11;11.05;;;4.63;;
69253;SDS011;56364;41.816;12.448;2022-10-17T06:53:38;7.32;;;3.80;;
69253;SDS011;56364;41.816;12.448;2022-10-17T06:56:05;10.43;;;4.28;;
69253;SDS011;56364;41.816;12.448;2022-10-17T06:58:36;12.95;;;5.18;;
69253;SDS011;56364;41.816;12.448;2022-10-17T07:01:04;9.88;;;4.70;;
69253;SDS011;56364;41.816;12.448;2022-10-17T07:03:30;13.13;;;4.30;;
69253;SDS011;56364;41.816;12.448;2022-10-17T07:05:56;12.57;;;4.57;;
69253;SDS011;56364;41.816;12.448;2022-10-17T07:08:23;11.57;;;4.53;;
69253;SDS011;56364;41.816;12.448;2022-10-17T07:10:49;11.15;;;4.57;;
69253;SDS011;56364;41.816;12.448;2022-10-17T07:13:18;11.05;;;4.55;;
69253;SDS011;56364;41.816;12.448;2022-10-17T07:15:44;9.50;;;3.88;;
69253;SDS011;56364;41.816;12.448;2022-10-17T07:18:10;9.82;;;4.70;;
69253;SDS011;56364;41.816;12.448;2022-10-17T07:23:03;11.25;;;4.07;;
69253;SDS011;56364;41.816;12.448;2022-10-17T07:25:29;13.57;;;4.85;;
69253;SDS011;56364;41.816;12.448;2022-10-17T07:27:55;10.80;;;4.63;;
69253;SDS011;56364;41.816;12.448;2022-10-17T07:30:21;15.55;;;4.38;;
69253;SDS011;56364;41.816;12.448;2022-10-17T07:32:47;11.95;;;5.00;;
69253;SDS011;56364;41.816;12.448;2022-10-17T08:37:33;12.18;;;4.90;;
69253;SDS011;56364;41.816;12.448;2022-10-17T08:40:00;18.42;;;4.32;;
69253;SDS011;56364;41.816;12.448;2022-10-17T08:47:26;10.02;;;5.13;;
69253;SDS011;56364;41.816;12.448;2022-10-17T08:49:55;12.43;;;5.15;;
69253;SDS011;56364;41.816;12.448;2022-10-17T08:54:52;14.07;;;4.90;;
69253;SDS011;56364;41.816;12.448;2022-10-17T08:59:55;10.23;;;4.10;;
69253;SDS011;56364;41.816;12.448;2022-10-17T09:10:54;21.10;;;6.07;;
69253;SDS011;56364;41.816;12.448;2022-10-17T09:18:35;13.70;;;5.88;;
69253;SDS011;56364;41.816;12.448;2022-10-17T09:21:19;19.63;;;6.03;;
69253;SDS011;56364;41.816;12.448;2022-10-17T09:23:56;13.80;;;5.13;;
69253;SDS011;56364;41.816;12.448;2022-10-17T09:26:25;13.75;;;5.47;;
69253;SDS011;56364;41.816;12.448;2022-10-17T09:28:52;13.80;;;5.28;;
69253;SDS011;56364;41.816;12.448;2022-10-17T09:31:24;17.10;;;6.00;;
69253;SDS011;56364;41.816;12.448;2022-10-17T09:33:51;19.75;;;5.28;;
69253;SDS011;56364;41.816;12.448;2022-10-17T09:36:20;16.58;;;5.75;;
69253;SDS011;56364;41.816;12.448;2022-10-17T09:38:57;15.98;;;6.28;;
69253;SDS011;56364;41.816;12.448;2022-10-17T09:44:21;14.50;;;5.80;;
69253;SDS011;56364;41.816;12.448;2022-10-17T09:51:40;16.23;;;5.70;;
69253;SDS011;56364;41.816;12.448;2022-10-17T09:54:10;15.57;;;5.90;;
69253;SDS011;56364;41.816;12.448;2022-10-17T09:56:57;12.85;;;4.78;;
69253;SDS011;56364;41.816;12.448;2022-10-17T09:59:58;18.00;;;6.35;;
69253;SDS011;56364;41.816;12.448;2022-10-17T10:02:20;14.07;;;5.30;;
69253;SDS011;56364;41.816;12.448;2022-10-17T10:04:59;13.98;;;6.05;;
69253;SDS011;56364;41.816;12.448;2022-10-17T10:07:30;14.55;;;5.15;;
69253;SDS011;56364;41.816;12.448;2022-10-17T10:09:56;12.43;;;5.82;;
69253;SDS011;56364;41.816;12.448;2022-10-17T10:12:28;12.90;;;4.95;;
69253;SDS011;56364;41.816;12.448;2022-10-17T10:14:55;14.43;;;5.55;;
69253;SDS011;56364;41.816;12.448;2022-10-17T10:19:54;12.38;;;5.22;;
69253;SDS011;56364;41.816;12.448;2022-10-17T10:22:20;10.20;;;5.22;;
69253;SDS011;56364;41.816;12.448;2022-10-17T10:29:58;10.68;;;4.50;;
69253;SDS011;56364;41.816;12.448;2022-10-17T10:32:26;12.65;;;5.00;;
69253;SDS011;56364;41.816;12.448;2022-10-17T10:34:53;13.80;;;5.20;;
69253;SDS011;56364;41.816;12.448;2022-10-17T10:37:22;10.00;;;4.95;;
69253;SDS011;56364;41.816;12.448;2022-10-17T10:42:29;10.10;;;4.55;;
69253;SDS011;56364;41.816;12.448;2022-10-17T10:45:02;16.33;;;5.20;;
69253;SDS011;56364;41.816;12.448;2022-10-17T10:47:29;8.40;;;4.18;;
69253;SDS011;56364;41.816;12.448;2022-10-17T10:50:08;9.75;;;4.55;;
69253;SDS011;56364;41.816;12.448;2022-10-17T10:52:42;10.20;;;4.53;;
69253;SDS011;56364;41.816;12.448;2022-10-17T10:55:16;13.38;;;4.82;;
69253;SDS011;56364;41.816;12.448;2022-10-17T10:57:43;9.05;;;4.35;;
69253;SDS011;56364;41.816;12.448;2022-10-17T11:02:43;9.30;;;4.22;;
69253;SDS011;56364;41.816;12.448;2022-10-17T11:05:19;9.65;;;4.35;;
69253;SDS011;56364;41.816;12.448;2022-10-17T11:08:02;12.13;;;4.32;;
69253;SDS011;56364;41.816;12.448;2022-10-17T11:13:11;12.45;;;4.35;;
69253;SDS011;56364;41.816;12.448;2022-10-17T11:15:46;11.45;;;4.97;;
69253;SDS011;56364;41.816;12.448;2022-10-17T11:18:19;10.43;;;4.45;;
69253;SDS011;56364;41.816;12.448;2022-10-17T11:20:53;9.55;;;4.75;;
69253;SDS011;56364;41.816;12.448;2022-10-17T11:26:07;8.68;;;4.50;;
69253;SDS011;56364;41.816;12.448;2022-10-17T11:28:35;10.07;;;4.38;;
69253;SDS011;56364;41.816;12.448;2022-10-17T11:31:03;9.32;;;4.22;;
69253;SDS011;56364;41.816;12.448;2022-10-17T11:33:52;12.02;;;5.07;;
69253;SDS011;56364;41.816;12.448;2022-10-17T11:39:21;12.48;;;4.88;;
69253;SDS011;56364;41.816;12.448;2022-10-17T11:41:57;11.77;;;4.97;;
69253;SDS011;56364;41.816;12.448;2022-10-17T11:44:38;9.80;;;4.65;;
69253;SDS011;56364;41.816;12.448;2022-10-17T12:05:52;8.57;;;4.20;;
69253;SDS011;56364;41.816;12.448;2022-10-17T12:11:20;10.10;;;4.60;;
69253;SDS011;56364;41.816;12.448;2022-10-17T12:13:51;10.20;;;4.60;;
69253;SDS011;56364;41.816;12.448;2022-10-17T12:16:35;8.77;;;4.35;;
69253;SDS011;56364;41.816;12.448;2022-10-17T12:19:19;9.90;;;4.55;;
69253;SDS011;56364;41.816;12.448;2022-10-17T12:24:34;9.23;;;4.38;;
69253;SDS011;56364;41.816;12.448;2022-10-17T12:29:45;8.43;;;4.82;;
69253;SDS011;56364;41.816;12.448;2022-10-17T12:32:12;8.38;;;4.53;;
69253;SDS011;56364;41.816;12.448;2022-10-17T12:34:49;10.30;;;4.82;;
69253;SDS011;56364;41.816;12.448;2022-10-17T12:42:47;7.95;;;4.22;;
69253;SDS011;56364;41.816;12.448;2022-10-17T12:46:02;8.50;;;4.28;;
69253;SDS011;56364;41.816;12.448;2022-10-17T12:48:00;7.60;;;4.32;;
69253;SDS011;56364;41.816;12.448;2022-10-17T12:51:10;10.65;;;4.43;;
69253;SDS011;56364;41.816;12.448;2022-10-17T12:53:19;14.13;;;4.53;;
69253;SDS011;56364;41.816;12.448;2022-10-17T12:55:51;9.85;;;4.50;;
69253;SDS011;56364;41.816;12.448;2022-10-17T12:58:23;8.75;;;4.45;;
69253;SDS011;56364;41.816;12.448;2022-10-17T13:00:53;12.25;;;4.55;;
69253;SDS011;56364;41.816;12.448;2022-10-17T13:03:21;11.18;;;4.78;;
69253;SDS011;56364;41.816;12.448;2022-10-17T13:05:50;11.38;;;3.97;;
69253;SDS011;56364;41.816;12.448;2022-10-17T13:08:19;8.80;;;4.70;;
69253;SDS011;56364;41.816;12.448;2022-10-17T13:10:46;8.73;;;4.30;;
69253;SDS011;56364;41.816;12.448;2022-10-17T13:13:21;9.35;;;4.03;;
69253;SDS011;56364;41.816;12.448;2022-10-17T13:15:52;8.93;;;4.28;;
69253;SDS011;56364;41.816;12.448;2022-10-17T13:18:23;14.90;;;5.13;;
69253;SDS011;56364;41.816;12.448;2022-10-17T13:20:57;7.68;;;4.43;;
69253;SDS011;56364;41.816;12.448;2022-10-17T13:36:25;7.70;;;4.65;;
69253;SDS011;56364;41.816;12.448;2022-10-17T13:38:52;16.08;;;4.60;;
69253;SDS011;56364;41.816;12.448;2022-10-17T13:41:24;9.65;;;4.60;;
69253;SDS011;56364;41.816;12.448;2022-10-17T13:43:50;8.02;;;4.40;;
69253;SDS011;56364;41.816;12.448;2022-10-17T13:46:35;8.23;;;4.45;;
69253;SDS011;56364;41.816;12.448;2022-10-17T13:49:10;11.85;;;4.40;;
69253;SDS011;56364;41.816;12.448;2022-10-17T13:51:40;9.18;;;4.35;;
69253;SDS011;56364;41.816;12.448;2022-10-17T13:57:15;9.10;;;4.10;;
69253;SDS011;56364;41.816;12.448;2022-10-17T13:59:41;8.20;;;4.50;;
69253;SDS011;56364;41.816;12.448;2022-10-17T14:02:13;8.60;;;4.28;;
69253;SDS011;56364;41.816;12.448;2022-10-17T14:04:40;9.15;;;4.65;;
69253;SDS011;56364;41.816;12.448;2022-10-17T14:07:24;10.90;;;5.13;;
69253;SDS011;56364;41.816;12.448;2022-10-17T14:09:51;10.55;;;4.53;;
69253;SDS011;56364;41.816;12.448;2022-10-17T14:12:18;11.43;;;4.78;;
69253;SDS011;56364;41.816;12.448;2022-10-17T14:14:46;11.00;;;4.47;;
69253;SDS011;56364;41.816;12.448;2022-10-17T14:17:13;8.15;;;4.68;;
69253;SDS011;56364;41.816;12.448;2022-10-17T14:19:39;7.80;;;4.05;;
69253;SDS011;56364;41.816;12.448;2022-10-17T14:24:50;9.50;;;4.20;;
69253;SDS011;56364;41.816;12.448;2022-10-17T14:27:36;7.55;;;3.70;;
69253;SDS011;56364;41.816;12.448;2022-10-17T14:30:04;8.88;;;4.57;;
69253;SDS011;56364;41.816;12.448;2022-10-17T14:32:35;8.38;;;4.45;;
69253;SDS011;56364;41.816;12.448;2022-10-17T14:35:03;11.77;;;4.97;;
69253;SDS011;56364;41.816;12.448;2022-10-17T14:40:00;8.55;;;4.25;;
69253;SDS011;56364;41.816;12.448;2022-10-17T14:42:27;8.40;;;3.38;;
69253;SDS011;56364;41.816;12.448;2022-10-17T14:44:54;11.50;;;4.30;;
69253;SDS011;56364;41.816;12.448;2022-10-17T14:47:25;8.07;;;4.05;;
69253;SDS011;56364;41.816;12.448;2022-10-17T14:50:03;8.65;;;4.07;;
69253;SDS011;56364;41.816;12.448;2022-10-17T14:52:30;7.38;;;4.78;;
69253;SDS011;56364;41.816;12.448;2022-10-17T14:54:56;8.32;;;4.20;;
69253;SDS011;56364;41.816;12.448;2022-10-17T14:57:25;8.80;;;4.07;;
69253;SDS011;56364;41.816;12.448;2022-10-17T14:59:52;7.05;;;4.40;;
69253;SDS011;56364;41.816;12.448;2022-10-17T15:02:18;10.00;;;4.28;;
69253;SDS011;56364;41.816;12.448;2022-10-17T15:04:44;9.32;;;3.53;;
69253;SDS011;56364;41.816;12.448;2022-10-17T15:07:14;5.78;;;3.63;;
69253;SDS011;56364;41.816;12.448;2022-10-17T15:09:41;8.80;;;4.10;;
69253;SDS011;56364;41.816;12.448;2022-10-17T15:12:12;8.10;;;3.92;;
69253;SDS011;56364;41.816;12.448;2022-10-17T15:14:38;8.05;;;3.45;;
69253;SDS011;56364;41.816;12.448;2022-10-17T15:17:11;9.25;;;4.28;;
69253;SDS011;56364;41.816;12.448;2022-10-17T15:19:38;9.88;;;4.20;;
69253;SDS011;56364;41.816;12.448;2022-10-17T15:22:04;10.15;;;3.97;;
69253;SDS011;56364;41.816;12.448;2022-10-17T15:24:30;7.15;;;3.70;;
69253;SDS011;56364;41.816;12.448;2022-10-17T15:26:56;6.82;;;3.53;;
69253;SDS011;56364;41.816;12.448;2022-10-17T15:29:22;7.55;;;3.85;;
69253;SDS011;56364;41.816;12.448;2022-10-17T15:31:48;8.68;;;4.10;;
69253;SDS011;56364;41.816;12.448;2022-10-17T15:34:14;9.88;;;4.47;;
69253;SDS011;56364;41.816;12.448;2022-10-17T15:36:41;12.07;;;4.13;;
69253;SDS011;56364;41.816;12.448;2022-10-17T15:39:18;10.27;;;4.70;;
69253;SDS011;56364;41.816;12.448;2022-10-17T15:44:24;12.10;;;4.35;;
69253;SDS011;56364;41.816;12.448;2022-10-17T15:46:51;9.02;;;3.95;;
69253;SDS011;56364;41.816;12.448;2022-10-17T15:49:17;9.95;;;4.57;;
69253;SDS011;56364;41.816;12.448;2022-10-17T15:51:44;10.48;;;5.20;;
69253;SDS011;56364;41.816;12.448;2022-10-17T15:56:48;12.98;;;4.65;;
69253;SDS011;56364;41.816;12.448;2022-10-17T15:59:17;12.18;;;5.13;;
69253;SDS011;56364;41.816;12.448;2022-10-17T16:01:48;13.68;;;5.20;;
69253;SDS011;56364;41.816;12.448;2022-10-17T16:04:24;11.85;;;5.10;;
69253;SDS011;56364;41.816;12.448;2022-10-17T16:06:51;9.68;;;3.78;;
69253;SDS011;56364;41.816;12.448;2022-10-17T16:09:17;11.43;;;5.05;;
69253;SDS011;56364;41.816;12.448;2022-10-17T16:11:43;9.77;;;4.68;;
69253;SDS011;56364;41.816;12.448;2022-10-17T16:14:14;8.23;;;3.53;;
69253;SDS011;56364;41.816;12.448;2022-10-17T16:19:23;11.50;;;5.20;;
69253;SDS011;56364;41.816;12.448;2022-10-17T16:21:51;10.02;;;4.95;;
69253;SDS011;56364;41.816;12.448;2022-10-17T16:24:18;9.27;;;4.55;;
69253;SDS011;56364;41.816;12.448;2022-10-17T16:26:44;14.02;;;4.32;;
69253;SDS011;56364;41.816;12.448;2022-10-17T16:29:11;10.88;;;4.57;;
69253;SDS011;56364;41.816;12.448;2022-10-17T16:31:41;13.90;;;4.45;;
69253;SDS011;56364;41.816;12.448;2022-10-17T16:34:09;11.60;;;4.40;;
69253;SDS011;56364;41.816;12.448;2022-10-17T16:39:14;10.75;;;4.28;;
69253;SDS011;56364;41.816;12.448;2022-10-17T16:41:40;10.45;;;4.60;;
69253;SDS011;56364;41.816;12.448;2022-10-17T16:44:07;14.38;;;4.60;;
69253;SDS011;56364;41.816;12.448;2022-10-17T16:46:34;9.95;;;4.80;;
69253;SDS011;56364;41.816;12.448;2022-10-17T16:49:01;9.63;;;4.03;;
69253;SDS011;56364;41.816;12.448;2022-10-17T16:51:28;10.38;;;4.90;;
69253;SDS011;56364;41.816;12.448;2022-10-17T16:53:55;11.73;;;4.35;;
69253;SDS011;56364;41.816;12.448;2022-10-17T16:56:24;10.38;;;4.53;;
69253;SDS011;56364;41.816;12.448;2022-10-17T16:58:53;16.10;;;4.63;;
69253;SDS011;56364;41.816;12.448;2022-10-17T17:01:21;13.00;;;4.07;;
69253;SDS011;56364;41.816;12.448;2022-10-17T17:04:07;10.77;;;4.60;;
69253;SDS011;56364;41.816;12.448;2022-10-17T17:06:33;12.13;;;4.55;;
69253;SDS011;56364;41.816;12.448;2022-10-17T17:09:03;14.05;;;4.53;;
69253;SDS011;56364;41.816;12.448;2022-10-17T17:11:29;12.43;;;4.60;;
69253;SDS011;56364;41.816;12.448;2022-10-17T17:13:57;11.77;;;4.40;;
69253;SDS011;56364;41.816;12.448;2022-10-17T17:16:25;12.98;;;4.53;;
69253;SDS011;56364;41.816;12.448;2022-10-17T17:18:59;14.82;;;4.07;;
69253;SDS011;56364;41.816;12.448;2022-10-17T17:21:25;9.30;;;4.45;;
69253;SDS011;56364;41.816;12.448;2022-10-17T17:23:53;12.38;;;4.75;;
69253;SDS011;56364;41.816;12.448;2022-10-17T17:26:22;14.55;;;4.47;;
69253;SDS011;56364;41.816;12.448;2022-10-17T17:28:49;11.00;;;3.97;;
69253;SDS011;56364;41.816;12.448;2022-10-17T17:31:21;11.52;;;4.72;;
69253;SDS011;56364;41.816;12.448;2022-10-17T17:33:47;11.50;;;4.95;;
69253;SDS011;56364;41.816;12.448;2022-10-17T17:36:14;10.75;;;4.38;;
69253;SDS011;56364;41.816;12.448;2022-10-17T17:38:41;10.70;;;4.47;;
69253;SDS011;56364;41.816;12.448;2022-10-17T17:41:10;11.23;;;4.15;;
69253;SDS011;56364;41.816;12.448;2022-10-17T17:43:36;11.98;;;4.55;;
69253;SDS011;56364;41.816;12.448;2022-10-17T17:46:02;9.75;;;3.83;;
69253;SDS011;56364;41.816;12.448;2022-10-17T17:48:28;11.15;;;4.32;;
69253;SDS011;56364;41.816;12.448;2022-10-17T17:53:21;8.27;;;3.35;;
69253;SDS011;56364;41.816;12.448;2022-10-17T17:55:47;10.60;;;4.15;;
69253;SDS011;56364;41.816;12.448;2022-10-17T17:58:13;11.05;;;4.38;;
69253;SDS011;56364;41.816;12.448;2022-10-17T18:00:42;9.73;;;4.38;;
69253;SDS011;56364;41.816;12.448;2022-10-17T18:03:08;12.88;;;4.35;;
69253;SDS011;56364;41.816;12.448;2022-10-17T18:05:34;8.65;;;3.92;;
69253;SDS011;56364;41.816;12.448;2022-10-17T18:08:00;9.40;;;4.30;;
69253;SDS011;56364;41.816;12.448;2022-10-17T18:10:30;10.95;;;4.15;;
69253;SDS011;56364;41.816;12.448;2022-10-17T18:12:57;16.70;;;4.65;;
69253;SDS011;56364;41.816;12.448;2022-10-17T18:17:48;10.00;;;4.03;;
69253;SDS011;56364;41.816;12.448;2022-10-17T18:22:40;9.82;;;4.03;;
69253;SDS011;56364;41.816;12.448;2022-10-17T18:25:07;15.50;;;4.60;;
69253;SDS011;56364;41.816;12.448;2022-10-17T18:27:33;12.20;;;4.20;;
69253;SDS011;56364;41.816;12.448;2022-10-17T18:32:25;11.60;;;4.68;;
69253;SDS011;56364;41.816;12.448;2022-10-17T18:34:51;14.02;;;4.90;;
69253;SDS011;56364;41.816;12.448;2022-10-17T18:37:19;9.23;;;3.90;;
69253;SDS011;56364;41.816;12.448;2022-10-17T18:39:46;11.52;;;4.20;;
69253;SDS011;56364;41.816;12.448;2022-10-17T18:42:16;13.23;;;4.78;;
69253;SDS011;56364;41.816;12.448;2022-10-17T18:44:49;15.70;;;5.03;;
69253;SDS011;56364;41.816;12.448;2022-10-17T18:47:18;14.68;;;4.82;;
69253;SDS011;56364;41.816;12.448;2022-10-17T18:49:44;13.27;;;5.13;;
69253;SDS011;56364;41.816;12.448;2022-10-17T18:52:12;13.43;;;5.47;;
69253;SDS011;56364;41.816;12.448;2022-10-17T18:54:38;13.85;;;4.65;;
69253;SDS011;56364;41.816;12.448;2022-10-17T18:57:08;19.13;;;6.25;;
69253;SDS011;56364;41.816;12.448;2022-10-17T18:59:57;11.50;;;4.75;;
69253;SDS011;56364;41.816;12.448;2022-10-17T19:02:35;14.57;;;4.95;;
69253;SDS011;56364;41.816;12.448;2022-10-17T19:05:20;12.30;;;4.93;;
69253;SDS011;56364;41.816;12.448;2022-10-17T19:07:49;16.00;;;5.03;;